sensor_id;sensor_type;location;lat;lon;timestamp;pressure;altitude;pressure_sealevel;temperature;humidity
50734;BME280;36701;51.798;19.474;2022-12-18T00:01:27;100197.91;;;-4.27;100.00
50734;BME280;36701;51.798;19.474;2022-12-18T00:03:55;100203.22;;;-4.39;100.00
50734;BME280;36701;51.798;19.474;2022-12-18T00:06:25;100201.44;;;-4.49;100.00
50734;BME280;36701;51.798;19.474;2022-12-18T00:08:52;100195.09;;;-4.47;100.00
50734;BME280;36701;51.798;19.474;2022-12-18T00:11:21;100204.44;;;-4.54;100.00
50734;BME280;36701;51.798;19.474;2022-12-18T00:13:49;100213.00;;;-4.41;100.00
50734;BME280;36701;51.798;19.474;2022-12-18T00:16:18;100205.12;;;-4.41;100.00
50734;BME280;36701;51.798;19.474;2022-12-18T00:18:51;100205.06;;;-4.29;100.00
50734;BME280;36701;51.798;19.474;2022-12-18T00:21:19;100212.06;;;-4.40;100.00
50734;BME280;36701;51.798;19.474;2022-12-18T00:23:47;100202.00;;;-4.34;100.00
50734;BME280;36701;51.798;19.474;2022-12-18T00:26:20;100205.88;;;-4.50;100.00
50734;BME280;36701;51.798;19.474;2022-12-18T00:28:49;100216.81;;;-4.33;100.00
50734;BME280;36701;51.798;19.474;2022-12-18T00:31:18;100206.13;;;-4.53;100.00
50734;BME280;36701;51.798;19.474;2022-12-18T00:33:46;100212.06;;;-4.40;100.00
50734;BME280;36701;51.798;19.474;2022-12-18T00:36:16;100179.66;;;-4.95;100.00
50734;BME280;36701;51.798;19.474;2022-12-18T00:38:44;100237.91;;;-4.56;100.00
50734;BME280;36701;51.798;19.474;2022-12-18T00:41:13;100201.41;;;-4.82;100.00
50734;BME280;36701;51.798;19.474;2022-12-18T00:43:40;100235.03;;;-4.64;100.00
50734;BME280;36701;51.798;19.474;2022-12-18T00:46:06;100252.25;;;-4.60;100.00
50734;BME280;36701;51.798;19.474;2022-12-18T00:48:33;100209.59;;;-4.64;100.00
50734;BME280;36701;51.798;19.474;2022-12-18T00:50:59;100257.47;;;-4.49;100.00
50734;BME280;36701;51.798;19.474;2022-12-18T00:53:26;100252.22;;;-4.49;100.00
50734;BME280;36701;51.798;19.474;2022-12-18T00:55:52;100254.50;;;-4.44;100.00
50734;BME280;36701;51.798;19.474;2022-12-18T00:58:18;100218.09;;;-4.71;100.00
50734;BME280;36701;51.798;19.474;2022-12-18T03:05:13;100348.00;;;-5.21;100.00
50734;BME280;36701;51.798;19.474;2022-12-18T03:10:18;100384.38;;;-4.69;100.00
50734;BME280;36701;51.798;19.474;2022-12-18T03:12:52;100386.75;;;-4.78;100.00
50734;BME280;36701;51.798;19.474;2022-12-18T03:15:30;100389.59;;;-4.92;100.00
50734;BME280;36701;51.798;19.474;2022-12-18T03:18:05;100349.91;;;-5.23;100.00
50734;BME280;36701;51.798;19.474;2022-12-18T03:20:36;100392.72;;;-4.87;100.00
50734;BME280;36701;51.798;19.474;2022-12-18T03:23:15;100396.09;;;-4.85;100.00
50734;BME280;36701;51.798;19.474;2022-12-18T03:25:46;100394.19;;;-4.71;100.00
50734;BME280;36701;51.798;19.474;2022-12-18T03:28:20;100404.53;;;-4.93;100.00
50734;BME280;36701;51.798;19.474;2022-12-18T03:30:56;100408.91;;;-5.04;100.00
50734;BME280;36701;51.798;19.474;2022-12-18T03:33:34;100408.03;;;-4.81;100.00
50734;BME280;36701;51.798;19.474;2022-12-18T03:36:04;100413.28;;;-4.81;100.00
50734;BME280;36701;51.798;19.474;2022-12-18T03:38:32;100372.28;;;-5.41;100.00
50734;BME280;36701;51.798;19.474;2022-12-18T03:40:59;100431.41;;;-4.89;100.00
50734;BME280;36701;51.798;19.474;2022-12-18T03:43:48;100435.22;;;-4.93;100.00
50734;BME280;36701;51.798;19.474;2022-12-18T03:48:52;100443.41;;;-4.73;100.00
50734;BME280;36701;51.798;19.474;2022-12-18T03:51:28;100405.47;;;-5.05;100.00
50734;BME280;36701;51.798;19.474;2022-12-18T03:54:00;100445.72;;;-4.93;100.00
50734;BME280;36701;51.798;19.474;2022-12-18T03:56:33;100408.44;;;-5.09;100.00
50734;BME280;36701;51.798;19.474;2022-12-18T03:59:03;100414.72;;;-4.88;100.00
50734;BME280;36701;51.798;19.474;2022-12-18T04:01:35;100459.19;;;-4.62;100.00
50734;BME280;36701;51.798;19.474;2022-12-18T04:04:04;100451.78;;;-4.68;100.00
50734;BME280;36701;51.798;19.474;2022-12-18T04:06:36;100406.03;;;-5.13;100.00
50734;BME280;36701;51.798;19.474;2022-12-18T04:09:04;100450.28;;;-4.84;100.00
50734;BME280;36701;51.798;19.474;2022-12-18T04:11:32;100421.09;;;-5.03;100.00
50734;BME280;36701;51.798;19.474;2022-12-18T04:13:59;100397.22;;;-5.12;100.00
50734;BME280;36701;51.798;19.474;2022-12-18T04:16:26;100463.44;;;-4.84;100.00
50734;BME280;36701;51.798;19.474;2022-12-18T04:18:53;100434.47;;;-5.06;100.00
50734;BME280;36701;51.798;19.474;2022-12-18T04:21:20;100463.47;;;-5.08;100.00
50734;BME280;36701;51.798;19.474;2022-12-18T04:23:47;100464.59;;;-4.99;100.00
50734;BME280;36701;51.798;19.474;2022-12-18T04:26:14;100472.50;;;-4.88;100.00
50734;BME280;36701;51.798;19.474;2022-12-18T04:28:41;100468.19;;;-4.89;100.00
50734;BME280;36701;51.798;19.474;2022-12-18T04:31:09;100479.69;;;-4.79;100.00
50734;BME280;36701;51.798;19.474;2022-12-18T04:33:35;100488.34;;;-4.65;100.00
50734;BME280;36701;51.798;19.474;2022-12-18T04:36:03;100468.00;;;-4.75;100.00
50734;BME280;36701;51.798;19.474;2022-12-18T04:38:30;100485.25;;;-4.59;100.00
50734;BME280;36701;51.798;19.474;2022-12-18T04:40:58;100480.00;;;-5.19;100.00
50734;BME280;36701;51.798;19.474;2022-12-18T04:43:25;100503.94;;;-5.11;100.00
50734;BME280;36701;51.798;19.474;2022-12-18T04:45:51;100507.66;;;-4.78;100.00
50734;BME280;36701;51.798;19.474;2022-12-18T04:48:17;100502.59;;;-4.92;100.00
50734;BME280;36701;51.798;19.474;2022-12-18T04:50:44;100471.47;;;-5.09;100.00
50734;BME280;36701;51.798;19.474;2022-12-18T04:53:10;100505.06;;;-4.66;100.00
50734;BME280;36701;51.798;19.474;2022-12-18T04:55:37;100456.78;;;-5.36;100.00
50734;BME280;36701;51.798;19.474;2022-12-18T04:58:03;100496.97;;;-5.23;100.00
50734;BME280;36701;51.798;19.474;2022-12-18T05:00:30;100474.03;;;-5.21;100.00
50734;BME280;36701;51.798;19.474;2022-12-18T05:02:56;100492.88;;;-5.27;100.00
50734;BME280;36701;51.798;19.474;2022-12-18T05:05:23;100488.59;;;-5.28;100.00
50734;BME280;36701;51.798;19.474;2022-12-18T05:07:49;100518.16;;;-4.78;100.00
50734;BME280;36701;51.798;19.474;2022-12-18T05:10:16;100525.31;;;-5.15;100.00
50734;BME280;36701;51.798;19.474;2022-12-18T05:12:42;100535.53;;;-4.99;100.00
50734;BME280;36701;51.798;19.474;2022-12-18T05:15:31;100471.03;;;-5.52;100.00
50734;BME280;36701;51.798;19.474;2022-12-18T05:17:58;100532.53;;;-5.19;100.00
50734;BME280;36701;51.798;19.474;2022-12-18T05:20:26;100484.22;;;-5.40;100.00
50734;BME280;36701;51.798;19.474;2022-12-18T05:22:53;100533.72;;;-5.23;100.00
50734;BME280;36701;51.798;19.474;2022-12-18T05:25:20;100483.38;;;-5.41;100.00
50734;BME280;36701;51.798;19.474;2022-12-18T05:27:47;100535.13;;;-5.06;100.00
50734;BME280;36701;51.798;19.474;2022-12-18T05:30:15;100535.09;;;-5.30;100.00
50734;BME280;36701;51.798;19.474;2022-12-18T05:32:41;100487.66;;;-5.64;100.00
50734;BME280;36701;51.798;19.474;2022-12-18T05:35:09;100544.78;;;-5.06;100.00
50734;BME280;36701;51.798;19.474;2022-12-18T05:37:36;100551.84;;;-4.83;100.00
50734;BME280;36701;51.798;19.474;2022-12-18T05:40:04;100503.53;;;-5.41;100.00
50734;BME280;36701;51.798;19.474;2022-12-18T05:42:30;100539.84;;;-4.87;100.00
50734;BME280;36701;51.798;19.474;2022-12-18T05:44:57;100535.06;;;-4.93;100.00
50734;BME280;36701;51.798;19.474;2022-12-18T05:47:24;100548.44;;;-4.96;100.00
50734;BME280;36701;51.798;19.474;2022-12-18T05:49:50;100537.63;;;-5.04;100.00
50734;BME280;36701;51.798;19.474;2022-12-18T05:52:17;100557.09;;;-4.83;100.00
50734;BME280;36701;51.798;19.474;2022-12-18T05:54:43;100536.41;;;-5.12;100.00
50734;BME280;36701;51.798;19.474;2022-12-18T05:57:09;100557.09;;;-4.83;100.00
50734;BME280;36701;51.798;19.474;2022-12-18T05:59:36;100508.13;;;-5.32;100.00
50734;BME280;36701;51.798;19.474;2022-12-18T06:02:03;100554.84;;;-5.00;100.00
50734;BME280;36701;51.798;19.474;2022-12-18T06:04:29;100481.78;;;-5.68;100.00
50734;BME280;36701;51.798;19.474;2022-12-18T06:06:58;100548.34;;;-5.07;100.00
50734;BME280;36701;51.798;19.474;2022-12-18T06:09:25;100565.06;;;-5.33;100.00
50734;BME280;36701;51.798;19.474;2022-12-18T06:11:52;100523.12;;;-5.58;100.00
50734;BME280;36701;51.798;19.474;2022-12-18T06:14:18;100574.56;;;-5.56;100.00
50734;BME280;36701;51.798;19.474;2022-12-18T06:16:45;100570.91;;;-5.66;100.00
50734;BME280;36701;51.798;19.474;2022-12-18T06:19:15;100588.38;;;-5.28;100.00
50734;BME280;36701;51.798;19.474;2022-12-18T06:21:49;100589.59;;;-5.21;100.00
50734;BME280;36701;51.798;19.474;2022-12-18T06:24:16;100585.87;;;-5.42;100.00
50734;BME280;36701;51.798;19.474;2022-12-18T06:26:43;100595.72;;;-5.33;100.00
50734;BME280;36701;51.798;19.474;2022-12-18T06:29:15;100616.91;;;-5.23;100.00
50734;BME280;36701;51.798;19.474;2022-12-18T06:31:42;100612.91;;;-5.16;100.00
50734;BME280;36701;51.798;19.474;2022-12-18T06:34:14;100615.09;;;-5.10;100.00
50734;BME280;36701;51.798;19.474;2022-12-18T06:36:40;100604.38;;;-5.57;100.00
50734;BME280;36701;51.798;19.474;2022-12-18T06:39:07;100618.94;;;-5.40;100.00
50734;BME280;36701;51.798;19.474;2022-12-18T06:41:33;100626.38;;;-5.21;100.00
50734;BME280;36701;51.798;19.474;2022-12-18T06:44:00;100628.09;;;-4.96;100.00
50734;BME280;36701;51.798;19.474;2022-12-18T06:46:26;100611.53;;;-5.22;100.00
50734;BME280;36701;51.798;19.474;2022-12-18T06:48:53;100639.41;;;-5.32;100.00
50734;BME280;36701;51.798;19.474;2022-12-18T06:51:21;100610.50;;;-5.69;100.00
50734;BME280;36701;51.798;19.474;2022-12-18T06:53:48;100643.94;;;-5.34;100.00
50734;BME280;36701;51.798;19.474;2022-12-18T06:56:14;100652.25;;;-5.40;100.00
50734;BME280;36701;51.798;19.474;2022-12-18T06:58:40;100652.03;;;-5.37;100.00
50734;BME280;36701;51.798;19.474;2022-12-18T07:01:10;100664.84;;;-5.45;100.00
50734;BME280;36701;51.798;19.474;2022-12-18T07:03:38;100677.84;;;-5.57;100.00
50734;BME280;36701;51.798;19.474;2022-12-18T07:06:05;100638.59;;;-5.45;100.00
50734;BME280;36701;51.798;19.474;2022-12-18T07:08:33;100650.16;;;-5.48;100.00
50734;BME280;36701;51.798;19.474;2022-12-18T07:10:59;100673.22;;;-5.15;100.00
50734;BME280;36701;51.798;19.474;2022-12-18T07:13:28;100691.09;;;-5.33;100.00
50734;BME280;36701;51.798;19.474;2022-12-18T07:15:55;100624.25;;;-6.04;100.00
50734;BME280;36701;51.798;19.474;2022-12-18T07:18:21;100692.88;;;-5.59;100.00
50734;BME280;36701;51.798;19.474;2022-12-18T07:20:48;100682.69;;;-5.51;100.00
50734;BME280;36701;51.798;19.474;2022-12-18T07:23:14;100659.81;;;-5.74;100.00
50734;BME280;36701;51.798;19.474;2022-12-18T07:25:41;100706.62;;;-5.55;100.00
50734;BME280;36701;51.798;19.474;2022-12-18T07:28:07;100710.81;;;-5.78;100.00
50734;BME280;36701;51.798;19.474;2022-12-18T07:30:37;100717.78;;;-5.26;100.00
50734;BME280;36701;51.798;19.474;2022-12-18T07:33:03;100656.88;;;-5.70;100.00
50734;BME280;36701;51.798;19.474;2022-12-18T07:35:30;100649.09;;;-5.84;100.00
50734;BME280;36701;51.798;19.474;2022-12-18T07:37:57;100721.31;;;-5.78;100.00
50734;BME280;36701;51.798;19.474;2022-12-18T07:40:24;100703.59;;;-6.28;100.00
50734;BME280;36701;51.798;19.474;2022-12-18T07:42:50;100711.91;;;-5.42;100.00
50734;BME280;36701;51.798;19.474;2022-12-18T07:45:17;100716.72;;;-5.36;100.00
50734;BME280;36701;51.798;19.474;2022-12-18T07:47:43;100668.03;;;-6.05;100.00
50734;BME280;36701;51.798;19.474;2022-12-18T07:50:10;100669.88;;;-5.68;100.00
50734;BME280;36701;51.798;19.474;2022-12-18T07:52:37;100663.59;;;-5.78;100.00
50734;BME280;36701;51.798;19.474;2022-12-18T07:55:04;100722.47;;;-5.05;100.00
50734;BME280;36701;51.798;19.474;2022-12-18T07:57:30;100709.16;;;-5.54;100.00
50734;BME280;36701;51.798;19.474;2022-12-18T07:59:57;100686.91;;;-5.61;100.00
50734;BME280;36701;51.798;19.474;2022-12-18T08:02:23;100667.47;;;-5.71;100.00
50734;BME280;36701;51.798;19.474;2022-12-18T08:04:50;100728.69;;;-5.45;100.00
50734;BME280;36701;51.798;19.474;2022-12-18T08:07:16;100684.69;;;-5.80;100.00
50734;BME280;36701;51.798;19.474;2022-12-18T08:09:43;100732.97;;;-5.57;100.00
50734;BME280;36701;51.798;19.474;2022-12-18T08:12:09;100735.16;;;-6.02;100.00
50734;BME280;36701;51.798;19.474;2022-12-18T08:14:36;100713.50;;;-6.18;100.00
50734;BME280;36701;51.798;19.474;2022-12-18T08:17:02;100746.94;;;-5.69;100.00
50734;BME280;36701;51.798;19.474;2022-12-18T08:19:29;100742.53;;;-5.56;100.00
50734;BME280;36701;51.798;19.474;2022-12-18T08:21:55;100755.75;;;-5.70;100.00
50734;BME280;36701;51.798;19.474;2022-12-18T08:24:22;100719.22;;;-5.73;100.00
50734;BME280;36701;51.798;19.474;2022-12-18T08:26:49;100710.63;;;-5.50;100.00
50734;BME280;36701;51.798;19.474;2022-12-18T08:29:16;100716.72;;;-5.36;100.00
50734;BME280;36701;51.798;19.474;2022-12-18T08:31:43;100754.31;;;-5.23;100.00
50734;BME280;36701;51.798;19.474;2022-12-18T08:34:09;100755.16;;;-5.35;100.00
50734;BME280;36701;51.798;19.474;2022-12-18T08:36:36;100720.50;;;-5.66;100.00
50734;BME280;36701;51.798;19.474;2022-12-18T08:39:02;100750.81;;;-5.62;100.00
50734;BME280;36701;51.798;19.474;2022-12-18T08:41:29;100768.78;;;-5.56;100.00
50734;BME280;36701;51.798;19.474;2022-12-18T08:43:55;100760.81;;;-5.16;100.00
50734;BME280;36701;51.798;19.474;2022-12-18T08:46:42;100754.53;;;-5.52;100.00
50734;BME280;36701;51.798;19.474;2022-12-18T08:49:10;100755.16;;;-5.35;100.00
50734;BME280;36701;51.798;19.474;2022-12-18T08:51:38;100727.88;;;-5.45;100.00
50734;BME280;36701;51.798;19.474;2022-12-18T08:54:05;100729.13;;;-5.38;100.00
50734;BME280;36701;51.798;19.474;2022-12-18T08:56:32;100775.97;;;-5.32;100.00
50734;BME280;36701;51.798;19.474;2022-12-18T08:58:59;100783.88;;;-5.72;100.00
50734;BME280;36701;51.798;19.474;2022-12-18T09:01:26;100751.59;;;-5.34;100.00
50734;BME280;36701;51.798;19.474;2022-12-18T09:03:52;100783.88;;;-5.72;100.00
50734;BME280;36701;51.798;19.474;2022-12-18T09:06:20;100789.94;;;-5.85;100.00
50734;BME280;36701;51.798;19.474;2022-12-18T09:08:47;100794.75;;;-5.91;100.00
50734;BME280;36701;51.798;19.474;2022-12-18T09:11:19;100801.03;;;-5.54;100.00
50734;BME280;36701;51.798;19.474;2022-12-18T09:13:46;100798.75;;;-5.33;100.00
50734;BME280;36701;51.798;19.474;2022-12-18T09:16:13;100764.41;;;-5.42;100.00
50734;BME280;36701;51.798;19.474;2022-12-18T09:18:39;100807.47;;;-4.81;100.00
50734;BME280;36701;51.798;19.474;2022-12-18T09:21:19;100802.28;;;-4.69;100.00
50734;BME280;36701;51.798;19.474;2022-12-18T09:23:50;100757.78;;;-5.09;100.00
50734;BME280;36701;51.798;19.474;2022-12-18T09:26:17;100765.66;;;-5.35;100.00
50734;BME280;36701;51.798;19.474;2022-12-18T09:28:44;100811.06;;;-4.82;100.00
50734;BME280;36701;51.798;19.474;2022-12-18T09:31:16;100809.59;;;-4.99;100.00
50734;BME280;36701;51.798;19.474;2022-12-18T09:33:43;100800.22;;;-4.90;100.00
50734;BME280;36701;51.798;19.474;2022-12-18T09:36:13;100774.28;;;-5.33;100.00
50734;BME280;36701;51.798;19.474;2022-12-18T09:38:39;100815.03;;;-5.40;100.00
50734;BME280;36701;51.798;19.474;2022-12-18T09:49:43;100811.28;;;-4.98;100.00
50734;BME280;36701;51.798;19.474;2022-12-18T09:54:52;100809.72;;;-5.66;100.00
50734;BME280;36701;51.798;19.474;2022-12-18T09:57:23;100810.41;;;-4.98;100.00
50734;BME280;36701;51.798;19.474;2022-12-18T09:59:56;100771.12;;;-5.00;100.00
50734;BME280;36701;51.798;19.474;2022-12-18T10:02:26;100802.16;;;-4.55;100.00
50734;BME280;36701;51.798;19.474;2022-12-18T10:05:02;100793.81;;;-4.86;100.00
50734;BME280;36701;51.798;19.474;2022-12-18T10:10:32;100806.81;;;-4.71;100.00
50734;BME280;36701;51.798;19.474;2022-12-18T10:15:54;100803.06;;;-5.06;100.00
50734;BME280;36701;51.798;19.474;2022-12-18T10:21:50;100802.75;;;-5.80;100.00
50734;BME280;36701;51.798;19.474;2022-12-18T10:24:35;100811.88;;;-5.45;100.00
50734;BME280;36701;51.798;19.474;2022-12-18T10:27:17;100807.28;;;-5.82;100.00
50734;BME280;36701;51.798;19.474;2022-12-18T10:29:44;100817.97;;;-5.45;100.00
50734;BME280;36701;51.798;19.474;2022-12-18T10:32:17;100805.81;;;-5.73;100.00
50734;BME280;36701;51.798;19.474;2022-12-18T10:34:46;100808.16;;;-5.56;100.00
50734;BME280;36701;51.798;19.474;2022-12-18T10:37:18;100818.47;;;-5.53;100.00
50734;BME280;36701;51.798;19.474;2022-12-18T10:39:46;100815.44;;;-5.47;100.00
50734;BME280;36701;51.798;19.474;2022-12-18T10:42:31;100818.34;;;-5.64;100.00
50734;BME280;36701;51.798;19.474;2022-12-18T10:45:06;100826.09;;;-6.30;100.00
50734;BME280;36701;51.798;19.474;2022-12-18T10:47:35;100627.59;;;-7.09;100.00
50734;BME280;36701;51.798;19.474;2022-12-18T10:50:02;100818.91;;;-5.86;100.00
50734;BME280;36701;51.798;19.474;2022-12-18T10:52:29;100832.63;;;-5.55;100.00
50734;BME280;36701;51.798;19.474;2022-12-18T10:55:02;100775.50;;;-5.64;100.00
50734;BME280;36701;51.798;19.474;2022-12-18T10:57:32;100819.03;;;-5.22;100.00
50734;BME280;36701;51.798;19.474;2022-12-18T11:00:26;100825.53;;;-5.27;100.00
50734;BME280;36701;51.798;19.474;2022-12-18T11:02:55;100822.81;;;-5.26;100.00
50734;BME280;36701;51.798;19.474;2022-12-18T11:05:29;100818.38;;;-5.38;100.00
50734;BME280;36701;51.798;19.474;2022-12-18T11:07:57;100816.28;;;-5.33;100.00
50734;BME280;36701;51.798;19.474;2022-12-18T11:10:31;100820.31;;;-5.15;100.00
50734;BME280;36701;51.798;19.474;2022-12-18T11:13:22;100782.25;;;-5.48;100.00
50734;BME280;36701;51.798;19.474;2022-12-18T11:15:50;100823.44;;;-5.35;100.00
50734;BME280;36701;51.798;19.474;2022-12-18T11:20:56;100803.59;;;-5.79;100.00
50734;BME280;36701;51.798;19.474;2022-12-18T11:23:24;100779.50;;;-5.59;100.00
50734;BME280;36701;51.798;19.474;2022-12-18T11:25:54;100788.00;;;-6.08;100.00
50734;BME280;36701;51.798;19.474;2022-12-18T11:28:43;100778.25;;;-5.66;100.00
50734;BME280;36701;51.798;19.474;2022-12-18T11:31:21;100771.66;;;-5.86;100.00
50734;BME280;36701;51.798;19.474;2022-12-18T11:33:56;100817.47;;;-5.77;100.00
50734;BME280;36701;51.798;19.474;2022-12-18T11:36:26;100761.41;;;-5.76;100.00
50734;BME280;36701;51.798;19.474;2022-12-18T11:38:55;100789.78;;;-5.56;100.00
50734;BME280;36701;51.798;19.474;2022-12-18T11:41:29;100822.38;;;-5.45;100.00
50734;BME280;36701;51.798;19.474;2022-12-18T11:44:29;100820.31;;;-5.15;100.00
50734;BME280;36701;51.798;19.474;2022-12-18T11:47:37;100822.41;;;-5.20;100.00
50734;BME280;36701;51.798;19.474;2022-12-18T11:50:03;100828.50;;;-5.19;100.00
50734;BME280;36701;51.798;19.474;2022-12-18T11:52:39;100810.19;;;-5.47;100.00
50734;BME280;36701;51.798;19.474;2022-12-18T11:55:14;100808.97;;;-5.15;100.00
50734;BME280;36701;51.798;19.474;2022-12-18T11:58:02;100796.94;;;-4.81;100.00
50734;BME280;36701;51.798;19.474;2022-12-18T12:03:39;100806.81;;;-4.71;100.00
50734;BME280;36701;51.798;19.474;2022-12-18T12:06:24;100774.62;;;-5.78;100.00
50734;BME280;36701;51.798;19.474;2022-12-18T12:09:08;100827.84;;;-5.49;100.00
50734;BME280;36701;51.798;19.474;2022-12-18T12:17:44;100841.03;;;-6.17;100.00
50734;BME280;36701;51.798;19.474;2022-12-18T12:20:22;100844.41;;;-6.15;100.00
50734;BME280;36701;51.798;19.474;2022-12-18T12:26:29;100851.00;;;-6.51;100.00
50734;BME280;36701;51.798;19.474;2022-12-18T12:34:55;100844.66;;;-6.47;100.00
50734;BME280;36701;51.798;19.474;2022-12-18T12:37:42;100853.59;;;-5.95;100.00
50734;BME280;36701;51.798;19.474;2022-12-18T12:40:17;100809.91;;;-5.82;100.00
50734;BME280;36701;51.798;19.474;2022-12-18T12:42:54;100859.47;;;-5.77;100.00
50734;BME280;36701;51.798;19.474;2022-12-18T12:48:44;100866.09;;;-5.99;100.00
50734;BME280;36701;51.798;19.474;2022-12-18T12:51:25;100863.38;;;-5.97;100.00
50734;BME280;36701;51.798;19.474;2022-12-18T12:53:54;100872.69;;;-5.79;100.00
50734;BME280;36701;51.798;19.474;2022-12-18T12:56:22;100863.59;;;-6.15;100.00
50734;BME280;36701;51.798;19.474;2022-12-18T12:59:08;100833.53;;;-6.51;100.00
50734;BME280;36701;51.798;19.474;2022-12-18T13:01:57;100887.13;;;-6.28;100.00
50734;BME280;36701;51.798;19.474;2022-12-18T13:04:36;100880.66;;;-5.80;100.00
50734;BME280;36701;51.798;19.474;2022-12-18T13:07:32;100887.09;;;-5.99;100.00
50734;BME280;36701;51.798;19.474;2022-12-18T13:10:24;100882.13;;;-5.76;100.00
50734;BME280;36701;51.798;19.474;2022-12-18T13:12:52;100891.81;;;-6.18;100.00
50734;BME280;36701;51.798;19.474;2022-12-18T13:15:26;100890.41;;;-6.39;100.00
50734;BME280;36701;51.798;19.474;2022-12-18T13:20:43;100879.69;;;-6.07;100.00
50734;BME280;36701;51.798;19.474;2022-12-18T13:23:30;100876.47;;;-6.25;100.00
50734;BME280;36701;51.798;19.474;2022-12-18T13:34:22;100884.75;;;-6.04;100.00
50734;BME280;36701;51.798;19.474;2022-12-18T13:36:52;100883.41;;;-5.69;100.00
50734;BME280;36701;51.798;19.474;2022-12-18T13:41:54;100894.41;;;-6.04;100.00
50734;BME280;36701;51.798;19.474;2022-12-18T13:44:59;100900.03;;;-5.83;100.00
50734;BME280;36701;51.798;19.474;2022-12-18T13:47:35;100863.19;;;-6.36;100.00
50734;BME280;36701;51.798;19.474;2022-12-18T13:50:22;100903.94;;;-6.03;100.00
50734;BME280;36701;51.798;19.474;2022-12-18T13:52:52;100867.47;;;-6.49;100.00
50734;BME280;36701;51.798;19.474;2022-12-18T13:55:21;100898.84;;;-6.62;100.00
50734;BME280;36701;51.798;19.474;2022-12-18T13:57:48;100869.34;;;-6.95;100.00
50734;BME280;36701;51.798;19.474;2022-12-18T14:00:31;100911.63;;;-6.86;100.00
50734;BME280;36701;51.798;19.474;2022-12-18T14:02:59;100907.47;;;-6.60;100.00
50734;BME280;36701;51.798;19.474;2022-12-18T14:05:29;100907.84;;;-6.66;100.00
50734;BME280;36701;51.798;19.474;2022-12-18T14:08:02;100914.63;;;-6.78;100.00
50734;BME280;36701;51.798;19.474;2022-12-18T14:10:45;100912.50;;;-6.86;100.00
50734;BME280;36701;51.798;19.474;2022-12-18T14:13:35;100921.87;;;-6.67;100.00
50734;BME280;36701;51.798;19.474;2022-12-18T14:16:05;100921.41;;;-6.45;100.00
50734;BME280;36701;51.798;19.474;2022-12-18T14:18:53;100923.56;;;-6.37;100.00
50734;BME280;36701;51.798;19.474;2022-12-18T14:21:28;100923.09;;;-6.44;100.00
50734;BME280;36701;51.798;19.474;2022-12-18T14:26:35;100915.81;;;-6.39;100.00
50734;BME280;36701;51.798;19.474;2022-12-18T14:29:22;100906.56;;;-6.89;100.00
50734;BME280;36701;51.798;19.474;2022-12-18T14:34:38;100915.25;;;-6.30;100.00
50734;BME280;36701;51.798;19.474;2022-12-18T14:37:04;100913.34;;;-6.57;100.00
50734;BME280;36701;51.798;19.474;2022-12-18T14:39:31;100918.69;;;-6.58;100.00
50734;BME280;36701;51.798;19.474;2022-12-18T14:41:57;100873.47;;;-6.90;100.00
50734;BME280;36701;51.798;19.474;2022-12-18T14:44:24;100872.72;;;-6.49;100.00
50734;BME280;36701;51.798;19.474;2022-12-18T14:46:51;100925.50;;;-5.98;100.00
50734;BME280;36701;51.798;19.474;2022-12-18T14:49:31;100886.56;;;-6.18;100.00
50734;BME280;36701;51.798;19.474;2022-12-18T14:52:12;100874.56;;;-6.23;100.00
50734;BME280;36701;51.798;19.474;2022-12-18T14:54:46;100916.53;;;-6.51;100.00
50734;BME280;36701;51.798;19.474;2022-12-18T14:57:22;100915.25;;;-6.30;100.00
50734;BME280;36701;51.798;19.474;2022-12-18T14:59:50;100910.91;;;-6.31;100.00
50734;BME280;36701;51.798;19.474;2022-12-18T15:02:25;100925.91;;;-6.62;100.00
50734;BME280;36701;51.798;19.474;2022-12-18T15:05:14;100941.25;;;-6.55;100.00
50734;BME280;36701;51.798;19.474;2022-12-18T15:07:49;100936.59;;;-6.36;100.00
50734;BME280;36701;51.798;19.474;2022-12-18T15:10:20;100937.59;;;-6.39;100.00
50734;BME280;36701;51.798;19.474;2022-12-18T15:13:07;100940.31;;;-6.40;100.00
50734;BME280;36701;51.798;19.474;2022-12-18T15:18:15;100934.50;;;-6.60;100.00
50734;BME280;36701;51.798;19.474;2022-12-18T15:20:51;100937.41;;;-6.50;100.00
50734;BME280;36701;51.798;19.474;2022-12-18T15:23:20;100931.31;;;-6.07;100.00
50734;BME280;36701;51.798;19.474;2022-12-18T15:26:02;100936.78;;;-6.39;100.00
50734;BME280;36701;51.798;19.474;2022-12-18T15:36:22;100930.34;;;-6.78;100.00
50734;BME280;36701;51.798;19.474;2022-12-18T15:38:50;100929.75;;;-6.98;100.00
50734;BME280;36701;51.798;19.474;2022-12-18T15:41:19;100902.31;;;-7.21;100.00
50734;BME280;36701;51.798;19.474;2022-12-18T15:43:47;100948.22;;;-7.15;100.00
50734;BME280;36701;51.798;19.474;2022-12-18T15:46:16;100916.53;;;-7.41;100.00
50734;BME280;36701;51.798;19.474;2022-12-18T15:48:48;100957.53;;;-7.09;100.00
50734;BME280;36701;51.798;19.474;2022-12-18T15:53:47;100949.41;;;-7.05;100.00
50734;BME280;36701;51.798;19.474;2022-12-18T15:56:16;100950.97;;;-7.33;100.00
50734;BME280;36701;51.798;19.474;2022-12-18T15:59:02;100954.09;;;-6.96;100.00
50734;BME280;36701;51.798;19.474;2022-12-18T16:01:30;100955.81;;;-6.80;100.00
50734;BME280;36701;51.798;19.474;2022-12-18T16:03:57;100922.53;;;-7.08;100.00
50734;BME280;36701;51.798;19.474;2022-12-18T16:06:24;100966.44;;;-6.98;100.00
50734;BME280;36701;51.798;19.474;2022-12-18T16:08:50;100966.69;;;-6.72;100.00
50734;BME280;36701;51.798;19.474;2022-12-18T16:11:28;100966.13;;;-7.07;100.00
50734;BME280;36701;51.798;19.474;2022-12-18T16:14:06;100932.34;;;-7.12;100.00
50734;BME280;36701;51.798;19.474;2022-12-18T16:16:38;100952.03;;;-7.51;100.00